Stunt Ranch Reserve, Santa Monica Mtns, California Weather observations

Data are for 10 minute period ending at time listed.
 Day   Time   Solar   Ave.   Ave.  Ave.  Vector  Max.   Baro.   Total    
  of    of     Rad.   Air    Rel.  Wind   Wind   Wind  Press.  Precip.   
Year   Day            Temp.  Hum.  Speed  Dir.   Gust                    
2015   (PST)  Kw/m2    F      %     mph   deg.    mph    mb.     in.     
-------------------------------------------------------------------------
  25   21:10   0.00   63.7    25    1.0   271     2.4   971.6    0.00 
  25   21:20   0.00   63.5    25    1.8   167     4.1   971.6    0.00 
  25   21:30   0.00   63.0    25    2.6   178     3.9   971.6    0.00 
  25   21:40   0.00   63.4    24    1.6   156     2.5   971.6    0.00 
  25   21:50   0.00   64.8    22    1.4   158     2.1   971.6    0.00 
  25   22:00   0.00   64.0    25    2.0   120     6.2   971.6    0.00 
  25   22:10   0.00   63.9    25    3.0   128     6.3   971.6    0.00 
  25   22:20   0.00   63.9    26    1.2    92     3.1   971.6    0.00 
  25   22:30   0.00   62.7    27    1.2   163     2.8   971.6    0.00 
  25   22:40   0.00   63.7    26    0.4    23     1.6   971.6    0.00 
  25   22:50   0.00   63.7    26    0.7    82     1.9   971.6    0.00 
  25   23:00   0.00   63.2    27    1.3   266     2.0   971.6    0.00 
  25   23:10   0.00   63.5    26    0.3   211     2.4   971.6    0.00 
  25   23:20   0.00   63.9    26    1.3   147     3.1   971.6    0.00 
  25   23:30   0.00   63.6    28    2.1   274     3.8   971.6    0.00 
  25   23:40   0.00   61.5    30    1.4   124     2.5   971.6    0.00 
  25   23:50   0.00   61.3    30    1.1   194     2.0   971.6    0.00 
  26    0:00   0.00   61.1    30    0.7   241     1.9   971.2    0.00 
  26    0:10   0.00   61.9    28    0.7   266     2.0   971.2    0.00 
  26    0:20   0.00   62.8    27    0.1   282     1.1   971.2    0.00 
  26    0:30   0.00   63.0    27    0.6   264     1.4   970.9    0.00 
  26    0:40   0.00   62.7    28    1.0   291     1.9   970.9    0.00 
  26    0:50   0.00   62.1    28    0.8    99     3.2   970.9    0.00 
  26    1:00   0.00   61.4    30    1.5   121     3.7   970.9    0.00 
  26    1:10   0.00   61.8    28    0.8   114     2.4   970.5    0.00 
  26    1:20   0.00   62.3    28    0.7    10     1.7   970.5    0.00 
  26    1:30   0.00   61.8    28    2.3   136     5.3   970.2    0.00 
  26    1:40   0.00   63.7    26    3.7   131     5.8   970.2    0.00 
  26    1:50   0.00   64.8    26    3.4   138     5.5   970.2    0.00 
  26    2:00   0.00   63.5    28    1.6   314     4.9   970.2    0.00 
  26    2:10   0.00   59.0    36    3.9   118     5.7   970.2    0.00 
  26    2:20   0.00   61.4    30    2.6   119     4.7   970.2    0.00 
  26    2:30   0.00   64.3    26    3.3   140     5.6   969.9    0.00 
  26    2:40   0.00   62.6    30    1.8    30     4.3   969.9    0.00 
  26    2:50   0.00   61.6    30    1.7   191     3.6   969.9    0.00 
  26    3:00   0.00   61.1    31    0.5   250     2.8   969.9    0.00 
  26    3:10   0.00   61.3    31    1.9   144     3.2   969.9    0.00 
  26    3:20   0.00   61.9    30    1.2   160     2.6   969.5    0.00 
  26    3:30   0.00   63.0    28    1.2   177     2.9   969.5    0.00 
  26    3:40   0.00   62.9    28    1.2   123     2.6   969.5    0.00 
  26    3:50   0.00   62.6    30    2.0   145     3.7   969.5    0.00 
  26    4:00   0.00   63.8    26    0.9   138     2.1   969.2    0.00 
  26    4:10   0.00   64.5    27    2.4   132     6.2   969.2    0.00 
  26    4:20   0.00   65.8    26    3.8   125     6.7   969.5    0.00 
  26    4:30   0.00   65.2    28    2.2   116     3.9   969.2    0.00 
  26    4:40   0.00   65.0    28    3.5   132     6.4   969.5    0.00 
  26    4:50   0.00   66.3    26    4.2   123     6.7   969.5    0.00 
  26    5:00   0.00   66.0    26    4.9   114     7.8   969.5    0.00 
  26    5:10   0.00   66.2    26    5.6   111     7.2   969.5    0.00 
  26    5:20   0.00   65.9    27    6.3   106     8.8   969.2    0.00 
  26    5:30   0.00   65.8    27    7.0    98     9.3   969.2    0.00 
  26    5:40   0.00   65.9    26    7.2    99    11.8   969.2    0.00 
  26    5:50   0.00   67.2    24    7.1    90    11.6   969.2    0.00 
  26    6:00   0.00   67.2    25    7.4    95    12.3   969.2    0.00 
  26    6:10   0.00   67.3    24    7.1   105    10.0   969.5    0.00 
  26    6:20   0.00   67.2    25    7.4    99     9.6   969.5    0.00 
  26    6:30   0.00   68.0    23    8.7   105    13.9   969.5    0.00 
  26    6:40   0.00   69.1    22    7.4   106    11.6   969.5    0.00 
  26    6:50   0.00   68.7    22    7.8    98    14.1   969.5    0.00 
  26    7:00   0.00   68.6    22    7.3    95    11.5   969.5    0.00 
  26    7:10   0.00   67.5    24    5.7    90     8.0   969.5    0.00 
  26    7:20   0.00   66.4    27    5.2    84     9.3   969.5    0.00 
  26    7:30   0.01   65.7    28    3.9    75     6.6   969.9    0.00 
  26    7:40   0.02   63.6    32    1.2    84     2.8   969.9    0.00 
  26    7:50   0.03   62.7    32    1.2   309     2.9   969.9    0.00 
  26    8:00   0.03   63.2    30    0.4   341     2.9   969.9    0.00 
  26    8:10   0.03   64.0    31    1.4    81     4.1   970.2    0.00 
  26    8:20   0.04   64.2    32    4.0   120     6.8   970.2    0.00 
  26    8:30   0.09   66.5    28    6.0   116    10.0   970.2    0.00 
  26    8:40   0.11   69.9    21    9.2   113    17.4   970.2    0.00 
  26    8:50   0.22   68.8    28    3.2   278     6.9   969.9    0.00 
  26    9:00   0.17   66.3    34    1.7   284     3.6   970.2    0.00 
  26    9:10   0.16   64.0    41    2.0    84     6.0   970.2    0.00 
  26    9:20   0.17   63.2    40    0.8   126     2.3   970.2    0.00 
  26    9:30   0.19   63.6    42    1.0   248     2.7   970.2    0.00 
  26    9:40   0.18   64.8    39    0.4    74     1.5   970.5    0.00 
  26    9:50   0.20   65.5    37    1.1   164     2.9   970.5    0.00 
  26   10:00   0.29   67.3    34    0.8   292     2.6   970.5    0.00 
  26   10:10   0.24   68.3    31    1.2   345     4.8   970.5    0.00 
  26   10:20   0.32   69.1    29    9.4    92    17.6   970.5    0.00 
  26   10:30   0.28   70.3    27    8.0    97    15.6   970.5    0.00 
  26   10:40   0.23   70.1    27    7.8    97    13.7   970.2    0.00 
  26   10:50   0.25   69.9    27    6.6   107    11.8   970.2    0.00 
  26   11:00   0.36   71.0    27    5.0    87     8.8   970.2    0.00 
  26   11:10   0.42   71.7    26    5.0    99     9.0   969.9    0.00 
  26   11:20   0.47   73.0    25    4.0   131     7.5   969.9    0.00 
  26   11:30   0.56   73.4    23    4.7   103     8.8   969.5    0.00 
  26   11:40   0.58   73.7    23    6.4    95    12.7   969.5    0.00 
  26   11:50   0.62   74.4    22    4.9   102    12.3   969.2    0.00 
  26   12:00   0.61   75.2    23    4.4   146     9.1   969.2    0.00 
  26   12:10   0.67   74.9    22    6.5   118    13.4   968.8    0.00 
  26   12:20   0.42   73.1    23    9.0   146    17.0   968.8    0.00 
  26   12:30   0.33   72.2    26    9.6   142    16.1   968.8    0.00 
  26   12:40   0.40   71.4    26    9.7   149    17.7   968.8    0.00 
  26   12:50   0.29   71.6    27    8.9   151    16.8   968.8    0.00 
  26   13:00   0.23   70.9    28    7.5   136    12.4   968.5    0.00 
  26   13:10   0.21   70.4    30    6.7   155    12.4   968.8    0.00 
  26   13:20   0.22   69.9    30    9.0   147    14.4   968.8    0.00 
  26   13:30   0.21   69.9    29    6.0   136    11.6   968.8    0.00 
  26   13:40   0.23   69.3    29    8.5   148    16.2   968.8    0.00 
  26   13:50   0.22   68.3    29    8.9   137    14.8   968.8    0.00 
  26   14:00   0.25   68.1    29    7.0   141    14.2   968.8    0.00 
  26   14:10   0.22   68.3    29    6.1   134    11.5   968.8    0.00 
  26   14:20   0.19   68.2    29    8.1   138    15.9   969.2    0.00 
  26   14:30   0.17   67.7    30    8.7   143    18.9   969.2    0.00 
  26   14:40   0.14   66.8    32    6.9   127    16.8   969.5    0.00 
  26   14:50   0.12   66.4    32    7.0   120    17.8   969.5    0.00 
  26   15:00   0.09   66.0    33    4.4   109    12.6   969.9    0.00 
  26   15:10   0.07   65.5    34    6.1   118    19.7   970.2    0.00 
  26   15:20   0.06   64.1    39    5.5   130    12.8   970.2    0.00 
  26   15:30   0.06   62.9    48    6.2   148    13.0   970.5    0.00 
  26   15:40   0.07   61.9    53    6.2   157    14.8   970.5    0.00 
  26   15:50   0.06   61.2    57    8.8   159    19.4   970.2    0.00 
  26   16:00   0.07   61.1    58    9.5   152    20.9   970.2    0.00 
  26   16:10   0.03   60.8    59   11.0   155    20.8   970.2    0.00 
  26   16:20   0.02   60.0    62   13.8   150    20.2   970.5    0.00 
  26   16:30   0.01   59.4    65   13.8   144    20.6   970.5    0.00 
  26   16:40   0.01   57.8    72   14.2   142    20.5   970.5    0.00 
  26   16:50   0.01   56.2    77   13.2   142    21.4   970.9    0.03 
  26   17:00   0.00   55.0    83    6.4   138    12.2   971.2    0.02 
  26   17:10   0.00   54.5    84    5.7   139     9.5   971.2    0.02 
  26   17:20   0.00   54.0    86    3.2   134     6.8   971.6    0.04 
  26   17:30   0.00   53.5    86    5.0   132     8.0   971.6    0.01 
  26   17:40   0.00   53.2    86    2.9   124     7.0   971.2    0.01 
  26   17:50   0.00   52.6    89    1.8   116     5.3   971.2    0.01 
  26   18:00   0.00   52.6    85    3.1   102     8.0   971.2    0.00 
  26   18:10   0.00   52.7    85    4.7   128     7.4   971.2    0.00 
  26   18:20   0.00   52.7    87    2.7   200     5.8   971.2    0.01 
  26   18:30   0.00   52.4    91    3.6   268     5.1   971.2    0.00 
  26   18:40   0.00   52.2    93    1.4   193     3.1   971.2    0.01 
  26   18:50   0.00   52.4    94    1.4   167     2.6   971.2    0.01 
  26   19:00   0.00   52.6    94    1.7   272     2.8   971.6    0.00 
  26   19:10   0.00   52.6    94    0.6   258     1.9   971.6    0.00 
  26   19:20   0.00   52.5    94    1.2   287     3.9   971.6    0.00 
  26   19:30   0.00   52.3    95    2.1   279     4.1   971.9    0.00 
  26   19:40   0.00   52.2    95    1.8   133     3.9   971.9    0.00 
  26   19:50   0.00   52.2    95    2.0   124     4.4   971.9    0.01 
  26   20:00   0.00   52.4    94    3.0    28     6.5   972.2    0.00 
  26   20:10   0.00   52.6    93    1.0    12     3.6   972.2    0.01 
  26   20:20   0.00   52.6    92    1.4   104     2.8   972.2    0.00 
  26   20:30   0.00   52.4    92    1.0   148     3.6   972.2    0.00 
  26   20:40   0.00   52.2    93    2.9   129     4.2   971.9    0.01 
  26   20:50   0.00   52.1    93    2.3   136     3.4   971.9    0.01 
  26   21:00   0.00   51.9    93    2.1   129     4.2   971.9    0.00 

Return to Stunt Ranch Reserve graphs page.


Western Regional Climate Center,wrcc@dri.edu